Milan, Minnesota
Current Conditions -  °F | °C
As of 8:34 PM on Friday 28 Nov 2014 (Local Time) from KAQP Reporting Station
Broken Clouds Broken Clouds  
Wind Chill:   Ceiling: 1100
Heat Index: 19°   Visibility: 10mi
Dew Point: 16°   Wind: 12mph
Humidity: 86%   Direction: 130°SE
Pressure: 29.7"   Gusts: NA
Location:  45.11°N, 95.91°W
Report Text: KAQP 290234Z AUTO 13010KT 10SM BKN011 M07/M09 A2970 RMK AO2
Loading
Personal Weather Stations






























Interactive Weather Map New forecast layout! Learn more

10-Day Weather Forecast

Advertisements
Track Severe Weather on mobile